Felt, Idaho
Current Conditions -  °F | °C
As of 7:56 AM on Saturday 20 Dec 2014 (Local Time) from KDIJ Reporting Station
Overcast Overcast  
Wind Chill: 22°   Ceiling: 5500
Heat Index: 30°   Visibility: 10mi
Dew Point: 25°   Wind: 8mph
Humidity: 82%   Direction: 170°S
Pressure: 30.04"   Gusts: NA
Location:  43.87°N, 111.19°W
Report Text: KDIJ 201456Z AUTO 17007KT 10SM FEW046 OVC055 M01/M04 A3004 RMK AO2 58001 60000 T10111038 UPE40 P0000 SLP170
Loading
Personal Weather Stations






























Interactive Weather Map New forecast layout! Learn more

10-Day Weather Forecast

Advertisements
Track Severe Weather on mobile